createdAt,value
2019-06-10T00:01:26.444Z,55.20
2019-06-10T00:03:58.130Z,55.30
2019-06-10T00:06:30.960Z,55.20
2019-06-10T00:09:06.497Z,55.40
2019-06-10T00:11:37.213Z,55.30
2019-06-10T00:14:08.005Z,55.30
2019-06-10T00:16:41.174Z,55.20
2019-06-10T00:19:13.468Z,55.20
2019-06-10T00:21:44.078Z,55.40
2019-06-10T00:24:14.711Z,55.80
2019-06-10T00:26:47.972Z,55.90
2019-06-10T00:29:18.508Z,55.60
2019-06-10T00:31:50.824Z,55.70
2019-06-10T00:34:22.259Z,55.70
2019-06-10T00:36:52.940Z,55.80
2019-06-10T00:39:23.523Z,56.10
2019-06-10T00:41:54.182Z,56.40
2019-06-10T00:44:25.471Z,56.20
2019-06-10T00:46:56.149Z,56.40
2019-06-10T00:49:26.721Z,56.50
2019-06-10T00:51:57.413Z,56.40
2019-06-10T00:54:28.036Z,56.70
2019-06-10T00:57:01.172Z,56.60
2019-06-10T00:59:32.055Z,57.10
2019-06-10T01:02:03.358Z,57.50
2019-06-10T01:04:35.295Z,57.60
2019-06-10T01:07:06.544Z,57.40
2019-06-10T01:09:37.221Z,57.40
2019-06-10T01:12:09.054Z,57.50
2019-06-10T01:14:41.202Z,57.80
2019-06-10T01:17:15.256Z,57.80
2019-06-10T01:19:45.210Z,57.30
2019-06-10T01:22:17.349Z,57.10
2019-06-10T01:24:48.126Z,57.00
2019-06-10T01:27:21.060Z,57.00
2019-06-10T01:29:51.227Z,56.80
2019-06-10T01:32:22.111Z,57.00
2019-06-10T01:34:52.753Z,56.50
2019-06-10T01:37:25.884Z,56.40
2019-06-10T01:39:56.540Z,56.90
2019-06-10T01:42:27.095Z,56.30
2019-06-10T01:44:57.585Z,56.30
2019-06-10T01:47:30.979Z,56.00
2019-06-10T01:50:01.744Z,55.60
2019-06-10T01:52:32.266Z,55.40
2019-06-10T01:55:02.951Z,55.40
2019-06-10T01:57:33.675Z,55.30
2019-06-10T02:00:09.222Z,55.30
2019-06-10T02:02:37.368Z,55.20
2019-06-10T02:05:11.536Z,55.40
2019-06-10T02:07:41.302Z,55.70
2019-06-10T02:10:15.626Z,56.10
2019-06-10T02:12:44.415Z,56.30
2019-06-10T02:15:15.615Z,56.20
2019-06-10T02:17:47.202Z,56.00
2019-06-10T02:20:19.383Z,55.90
2019-06-10T02:22:51.581Z,55.70
2019-06-10T02:25:23.004Z,55.50
2019-06-10T02:27:53.611Z,55.30
2019-06-10T02:30:40.344Z,55.40
2019-06-10T02:32:58.075Z,55.30
2019-06-10T02:35:40.100Z,55.10
2019-06-10T02:38:03.549Z,55.20
2019-06-10T02:40:36.503Z,55.40
2019-06-10T02:43:07.333Z,55.40
2019-06-10T02:45:38.124Z,54.50
2019-06-10T02:48:08.733Z,55.10
2019-06-10T02:51:04.279Z,55.00
2019-06-10T02:53:36.629Z,54.90
2019-06-10T02:56:08.909Z,54.70
2019-06-10T02:58:40.275Z,54.60
2019-06-10T03:01:16.316Z,54.60
2019-06-10T03:03:49.406Z,54.60
2019-06-10T03:06:21.329Z,54.60
2019-06-10T03:08:50.263Z,54.80
2019-06-10T03:11:27.022Z,55.00
2019-06-10T03:13:53.208Z,55.00
2019-06-10T03:16:34.411Z,54.90
2019-06-10T03:19:05.703Z,54.90
2019-06-10T03:21:36.287Z,54.90
2019-06-10T03:24:06.851Z,54.90
2019-06-10T03:26:37.561Z,54.90
2019-06-10T03:29:08.078Z,54.90
2019-06-10T03:31:43.275Z,54.80
2019-06-10T03:34:14.367Z,54.60
2019-06-10T03:36:43.700Z,54.60
2019-06-10T03:39:14.271Z,54.60
2019-06-10T03:41:45.117Z,54.70
2019-06-10T03:44:16.846Z,54.90
2019-06-10T03:46:47.778Z,55.30
2019-06-10T03:49:19.132Z,55.50
2019-06-10T03:51:52.954Z,55.80
2019-06-10T03:54:27.316Z,56.10
2019-06-10T03:56:55.609Z,56.30
2019-06-10T03:59:29.067Z,56.20
2019-06-10T04:01:58.698Z,56.20
2019-06-10T04:04:29.558Z,56.30
2019-06-10T04:07:03.567Z,56.70
2019-06-10T04:09:33.068Z,56.80
2019-06-10T04:12:03.689Z,57.00
2019-06-10T04:14:36.036Z,57.40
2019-06-10T04:17:06.650Z,57.70
2019-06-10T04:19:37.288Z,57.90
2019-06-10T04:22:07.819Z,57.80
2019-06-10T04:24:38.722Z,57.60
2019-06-10T04:27:09.305Z,57.20
2019-06-10T04:29:42.063Z,57.00
2019-06-10T04:32:12.300Z,56.80
2019-06-10T04:34:43.433Z,56.40
2019-06-10T04:37:14.092Z,56.30
2019-06-10T04:39:44.801Z,56.00
2019-06-10T04:42:15.447Z,55.60
2019-06-10T04:44:46.678Z,55.50
2019-06-10T04:47:18.535Z,56.20
2019-06-10T04:49:52.109Z,56.70
2019-06-10T04:52:23.625Z,56.40
2019-06-10T04:54:55.343Z,55.40
2019-06-10T04:57:28.026Z,55.70
2019-06-10T04:59:58.844Z,55.90
2019-06-10T05:02:30.796Z,55.80
2019-06-10T05:05:03.916Z,56.00
2019-06-10T05:07:37.116Z,56.20
2019-06-10T05:10:09.111Z,56.10
2019-06-10T05:12:39.651Z,56.30
2019-06-10T05:15:12.541Z,55.40
2019-06-10T05:17:43.910Z,55.20
2019-06-10T05:20:15.168Z,54.60
2019-06-10T05:22:45.929Z,54.00
2019-06-10T05:25:16.648Z,53.80
2019-06-10T05:27:48.043Z,54.00
2019-06-10T05:30:20.030Z,54.00
2019-06-10T05:32:52.370Z,54.30
2019-06-10T05:35:24.235Z,54.20
2019-06-10T05:37:55.602Z,54.30
2019-06-10T05:40:27.606Z,53.80
2019-06-10T05:42:58.273Z,53.90
2019-06-10T05:45:29.414Z,53.10
2019-06-10T05:48:02.838Z,52.80
2019-06-10T05:50:34.957Z,52.80
2019-06-10T05:53:06.166Z,53.10
2019-06-10T05:55:37.493Z,52.30
2019-06-10T05:58:08.199Z,53.10
2019-06-10T06:00:38.981Z,53.50
2019-06-10T06:03:11.960Z,53.80
2019-06-10T06:05:43.344Z,54.50
2019-06-10T06:08:14.076Z,55.30
2019-06-10T06:10:44.771Z,57.20
2019-06-10T06:13:15.501Z,57.70
2019-06-10T06:15:46.290Z,58.60
2019-06-10T06:18:17.167Z,59.60
2019-06-10T06:20:48.447Z,58.80
2019-06-10T06:23:19.134Z,59.00
2019-06-10T06:25:52.960Z,59.40
2019-06-10T06:28:22.991Z,59.60
2019-06-10T06:30:53.939Z,59.60
2019-06-10T06:33:24.751Z,59.50
2019-06-10T06:36:03.693Z,59.30
2019-06-10T06:38:40.619Z,59.00
2019-06-10T06:41:22.417Z,58.80
2019-06-10T06:43:53.204Z,58.20
2019-06-10T06:46:25.613Z,57.10
2019-06-10T06:48:56.326Z,56.70
2019-06-10T06:51:37.969Z,55.70
2019-06-10T06:53:59.619Z,55.30
2019-06-10T06:56:35.447Z,54.60
2019-06-10T06:59:04.837Z,54.30
2019-06-10T07:01:38.066Z,54.00
2019-06-10T07:04:12.858Z,53.70
2019-06-10T07:06:44.213Z,53.50
2019-06-10T07:09:15.964Z,54.10
2019-06-10T07:11:48.143Z,55.10
2019-06-10T07:14:23.163Z,54.80
2019-06-10T07:16:53.044Z,55.20
2019-06-10T07:19:26.059Z,56.00
2019-06-10T07:22:08.661Z,55.70
2019-06-10T07:24:29.063Z,56.70
2019-06-10T07:27:02.603Z,56.40
2019-06-10T07:29:34.109Z,56.50
2019-06-10T07:32:04.768Z,57.00
2019-06-10T07:34:37.112Z,57.20
2019-06-10T07:37:07.713Z,56.90
2019-06-10T07:39:39.497Z,56.70
2019-06-10T07:42:10.233Z,56.60
2019-06-10T07:44:43.167Z,55.30
2019-06-10T07:47:13.170Z,55.30
2019-06-10T07:49:45.415Z,55.40
2019-06-10T07:52:19.647Z,55.50
2019-06-10T07:54:52.770Z,55.10
2019-06-10T07:57:22.673Z,54.60
2019-06-10T07:59:53.354Z,54.90
2019-06-10T08:02:23.879Z,53.10
2019-06-10T08:04:54.587Z,53.70
2019-06-10T08:07:25.554Z,53.20
2019-06-10T08:09:56.082Z,53.00
2019-06-10T08:12:26.600Z,52.40
2019-06-10T08:14:57.140Z,51.80
2019-06-10T08:17:27.668Z,50.70
2019-06-10T08:19:58.332Z,50.00
2019-06-10T08:22:33.418Z,49.00
2019-06-10T08:25:04.823Z,47.60
2019-06-10T08:27:36.459Z,47.20
2019-06-10T08:30:21.063Z,46.40
2019-06-10T08:32:44.522Z,46.40
2019-06-10T08:35:13.154Z,47.60
2019-06-10T08:37:45.965Z,47.70
2019-06-10T08:40:16.506Z,47.90
2019-06-10T08:42:48.824Z,47.90
2019-06-10T08:45:22.750Z,46.60
2019-06-10T08:47:54.228Z,46.50
2019-06-10T08:50:25.128Z,45.60
2019-06-10T08:53:12.824Z,45.60
2019-06-10T08:55:29.470Z,46.00
2019-06-10T08:58:02.761Z,45.60
2019-06-10T09:00:37.386Z,45.70
2019-06-10T09:03:12.423Z,45.90
2019-06-10T09:05:47.462Z,45.70
2019-06-10T09:08:14.719Z,45.70
2019-06-10T09:10:49.149Z,45.60
2019-06-10T09:13:17.874Z,45.70
2019-06-10T09:16:06.883Z,45.60
2019-06-10T09:18:23.208Z,45.10
2019-06-10T09:20:55.981Z,45.50
2019-06-10T09:23:25.959Z,45.50
2019-06-10T09:25:57.753Z,46.10
2019-06-10T09:28:28.672Z,46.10
2019-06-10T09:30:59.914Z,46.00
2019-06-10T09:33:33.134Z,45.80
2019-06-10T09:36:03.957Z,45.60
2019-06-10T09:38:35.929Z,45.50
2019-06-10T09:41:07.194Z,45.40
2019-06-10T09:43:41.348Z,45.50
2019-06-10T09:46:12.633Z,45.60
2019-06-10T09:48:47.911Z,46.00
2019-06-10T09:51:16.948Z,45.20
2019-06-10T09:54:01.098Z,45.00
2019-06-10T09:56:20.191Z,44.30
2019-06-10T09:58:52.947Z,44.10
2019-06-10T10:01:24.571Z,44.00
2019-06-10T10:04:00.088Z,43.90
2019-06-10T10:06:29.874Z,43.70
2019-06-10T10:09:03.216Z,43.60
2019-06-10T10:11:32.794Z,43.60
2019-06-10T10:14:06.432Z,43.10
2019-06-10T10:16:36.912Z,42.70
2019-06-10T10:19:08.664Z,42.10
2019-06-10T10:21:41.303Z,41.80
2019-06-10T10:24:14.915Z,41.30
2019-06-10T10:26:48.234Z,41.00
2019-06-10T10:29:16.511Z,40.90
2019-06-10T10:31:49.478Z,40.70
2019-06-10T10:34:19.363Z,40.30
2019-06-10T10:36:54.399Z,39.50
2019-06-10T10:39:24.680Z,39.00
2019-06-10T10:41:57.252Z,38.40
2019-06-10T10:44:27.994Z,37.80
2019-06-10T10:46:58.508Z,37.80
2019-06-10T10:49:29.057Z,37.70
2019-06-10T10:52:02.592Z,37.60
2019-06-10T10:54:35.948Z,36.90
2019-06-10T10:57:10.275Z,36.50
2019-06-10T10:59:43.130Z,36.40
2019-06-10T11:02:13.084Z,36.10
2019-06-10T11:04:47.937Z,36.00
2019-06-10T11:07:18.576Z,36.20
2019-06-10T11:09:50.416Z,36.30
2019-06-10T11:12:22.923Z,35.40
2019-06-10T11:14:56.197Z,34.20
2019-06-10T11:17:26.603Z,34.20
2019-06-10T11:19:57.781Z,34.10
2019-06-10T11:22:28.415Z,34.30
2019-06-10T11:24:59.226Z,32.90
2019-06-10T11:27:30.825Z,33.80
2019-06-10T11:30:03.516Z,33.90
2019-06-10T11:32:34.063Z,33.40
2019-06-10T11:35:04.950Z,33.10
2019-06-10T11:37:36.895Z,32.40
2019-06-10T11:40:07.874Z,31.60
2019-06-10T11:42:38.757Z,30.70
2019-06-10T11:45:10.174Z,30.00
2019-06-10T11:47:42.601Z,30.00
2019-06-10T11:50:13.583Z,30.00
2019-06-10T11:52:44.188Z,30.00
2019-06-10T11:55:19.168Z,29.70
2019-06-10T11:57:48.218Z,30.40
2019-06-10T12:00:19.210Z,31.30
2019-06-10T12:02:50.923Z,31.90
2019-06-10T12:05:24.213Z,32.30
2019-06-10T12:07:58.291Z,32.60
2019-06-10T12:10:29.833Z,33.40
2019-06-10T12:13:07.112Z,32.90
2019-06-10T12:16:13.991Z,33.30
2019-06-10T12:18:08.775Z,33.50
2019-06-10T12:20:42.518Z,33.00
2019-06-10T12:23:12.798Z,32.60
2019-06-10T12:25:43.805Z,32.70
2019-06-10T12:28:16.468Z,33.00
2019-06-10T12:30:47.857Z,34.00
2019-06-10T12:33:22.202Z,33.70
2019-06-10T12:35:59.472Z,33.60
2019-06-10T12:38:27.988Z,33.70
2019-06-10T12:41:03.237Z,33.30
2019-06-10T12:43:33.885Z,33.20
2019-06-10T12:46:05.856Z,33.70
2019-06-10T12:48:37.117Z,34.00
2019-06-10T12:51:10.239Z,33.20
2019-06-10T12:53:43.264Z,32.70
2019-06-10T12:56:15.246Z,31.90
2019-06-10T12:58:46.251Z,30.90
2019-06-10T13:01:18.343Z,29.70
2019-06-10T13:03:49.451Z,29.80
2019-06-10T13:06:23.358Z,29.60
2019-06-10T13:08:56.722Z,29.70
2019-06-10T13:11:28.695Z,29.00
2019-06-10T13:14:04.034Z,28.80
2019-06-10T13:16:34.216Z,29.10
2019-06-10T13:19:07.900Z,28.80
2019-06-10T13:21:42.433Z,28.60
2019-06-10T13:24:13.756Z,28.90
2019-06-10T13:26:47.495Z,28.60
2019-06-10T13:29:18.056Z,29.00
2019-06-10T13:31:48.697Z,28.90
2019-06-10T13:34:22.127Z,28.20
2019-06-10T13:36:53.894Z,28.30
2019-06-10T13:39:26.929Z,28.70
2019-06-10T13:41:57.574Z,29.10
2019-06-10T13:44:28.198Z,29.50
2019-06-10T13:47:02.030Z,29.60
2019-06-10T13:49:33.106Z,29.50
2019-06-10T13:52:08.501Z,29.40
2019-06-10T13:54:36.844Z,29.90
2019-06-10T13:57:13.632Z,30.10
2019-06-10T13:59:46.414Z,30.10
2019-06-10T14:02:16.096Z,30.30
2019-06-10T14:04:47.763Z,30.20
2019-06-10T14:07:18.693Z,29.90
2019-06-10T14:09:50.329Z,29.70
2019-06-10T14:12:23.144Z,29.20
2019-06-10T14:14:53.636Z,28.50
2019-06-10T14:17:25.541Z,27.80
2019-06-10T14:19:56.532Z,27.10
2019-06-10T14:22:27.400Z,26.60
2019-06-10T14:24:58.171Z,26.50
2019-06-10T14:27:29.051Z,27.10
2019-06-10T14:30:02.235Z,26.70
2019-06-10T14:32:33.079Z,26.40
2019-06-10T14:35:07.010Z,26.80
2019-06-10T14:37:39.364Z,27.00
2019-06-10T14:40:13.307Z,27.30
2019-06-10T14:42:43.256Z,27.80
2019-06-10T14:45:16.619Z,28.80
2019-06-10T14:47:47.625Z,29.20
2019-06-10T14:50:23.016Z,29.90
2019-06-10T14:52:53.183Z,31.00
2019-06-10T14:55:23.740Z,32.50
2019-06-10T14:57:55.386Z,34.30
2019-06-10T15:00:26.167Z,35.80
2019-06-10T15:02:57.375Z,36.80
2019-06-10T15:05:28.187Z,37.70
2019-06-10T15:07:59.194Z,38.60
2019-06-10T15:10:32.241Z,39.20
2019-06-10T15:13:03.933Z,39.70
2019-06-10T15:15:35.579Z,39.60
2019-06-10T15:18:07.628Z,39.90
2019-06-10T15:20:42.794Z,40.30
2019-06-10T15:23:16.450Z,40.60
2019-06-10T15:25:52.866Z,41.20
2019-06-10T15:28:18.101Z,41.40
2019-06-10T15:30:48.821Z,41.90
2019-06-10T15:33:19.701Z,41.80
2019-06-10T15:35:52.969Z,41.50
2019-06-10T15:38:23.327Z,42.30
2019-06-10T15:40:54.145Z,42.40
2019-06-10T15:43:25.124Z,42.50
2019-06-10T15:45:55.827Z,42.70
2019-06-10T15:48:26.381Z,43.10
2019-06-10T15:50:57.253Z,43.50
2019-06-10T15:53:28.258Z,43.90
2019-06-10T15:56:14.421Z,44.00
2019-06-10T15:58:32.109Z,44.70
2019-06-10T16:01:05.328Z,44.20
2019-06-10T16:03:35.995Z,44.10
2019-06-10T16:06:07.263Z,44.20
2019-06-10T16:08:39.144Z,44.30
2019-06-10T16:11:10.618Z,44.30
2019-06-10T16:13:43.540Z,44.20
2019-06-10T16:16:14.952Z,44.20
2019-06-10T16:18:45.954Z,44.20
2019-06-10T16:21:17.458Z,44.10
2019-06-10T16:23:49.001Z,44.10
2019-06-10T16:26:20.032Z,44.20
2019-06-10T16:28:52.203Z,44.60
2019-06-10T16:31:25.561Z,44.80
2019-06-10T16:33:55.432Z,45.00
2019-06-10T16:36:32.023Z,45.00
2019-06-10T16:39:04.288Z,44.90
2019-06-10T16:41:37.305Z,45.40
2019-06-10T16:44:10.374Z,45.70
2019-06-10T16:46:43.157Z,45.80
2019-06-10T16:49:14.273Z,46.70
2019-06-10T16:51:45.227Z,46.10
2019-06-10T16:54:23.948Z,46.20
2019-06-10T16:56:53.102Z,46.40
2019-06-10T16:59:26.259Z,46.60
2019-06-10T17:01:57.781Z,46.80
2019-06-10T17:04:29.879Z,46.90
2019-06-10T17:07:02.213Z,47.40
2019-06-10T17:09:33.038Z,47.40
2019-06-10T17:12:04.579Z,47.40
2019-06-10T17:14:39.207Z,47.40
2019-06-10T17:17:14.951Z,48.00
2019-06-10T17:19:48.193Z,47.80
2019-06-10T17:22:24.086Z,47.70
2019-06-10T17:24:54.958Z,47.50
2019-06-10T17:27:27.905Z,47.90
2019-06-10T17:29:58.707Z,48.00
2019-06-10T17:32:30.278Z,48.00
2019-06-10T17:35:02.378Z,48.00
2019-06-10T17:37:34.248Z,47.60
2019-06-10T17:40:14.450Z,47.80
2019-06-10T17:42:46.039Z,47.90
2019-06-10T17:45:22.567Z,47.80
2019-06-10T17:47:54.437Z,47.80
2019-06-10T17:50:26.521Z,48.10
2019-06-10T17:52:57.848Z,48.30
2019-06-10T17:55:29.644Z,48.50
2019-06-10T17:58:07.547Z,48.60
2019-06-10T18:00:42.065Z,48.70
2019-06-10T18:03:13.573Z,48.80
2019-06-10T18:05:46.526Z,49.10
2019-06-10T18:08:18.598Z,49.40
2019-06-10T18:10:53.485Z,49.40
2019-06-10T18:13:30.058Z,49.60
2019-06-10T18:16:08.183Z,49.60
2019-06-10T18:18:43.794Z,49.90
2019-06-10T18:21:15.044Z,50.10
2019-06-10T18:23:46.026Z,50.20
2019-06-10T18:26:16.735Z,50.50
2019-06-10T18:29:04.444Z,50.60
2019-06-10T18:31:23.127Z,50.60
2019-06-10T18:33:53.178Z,50.80
2019-06-10T18:36:32.674Z,50.90
2019-06-10T18:39:07.068Z,51.20
2019-06-10T18:41:41.876Z,51.40
2019-06-10T18:44:22.476Z,51.40
2019-06-10T18:46:47.890Z,51.30
2019-06-10T18:49:22.659Z,51.50
2019-06-10T18:51:53.683Z,51.80
2019-06-10T18:54:25.157Z,51.80
2019-06-10T18:56:57.570Z,51.40
2019-06-10T18:59:33.153Z,51.70
2019-06-10T19:02:08.436Z,52.20
2019-06-10T19:04:40.334Z,52.20
2019-06-10T19:07:14.421Z,52.30
2019-06-10T19:09:48.039Z,52.30
2019-06-10T19:12:17.765Z,52.50
2019-06-10T19:14:48.545Z,52.60
2019-06-10T19:17:23.644Z,52.80
2019-06-10T19:19:55.326Z,52.70
2019-06-10T19:22:26.019Z,52.80
2019-06-10T19:24:57.539Z,53.00
2019-06-10T19:27:28.747Z,53.10
2019-06-10T19:29:59.395Z,53.20
2019-06-10T19:32:36.706Z,53.20
2019-06-10T19:35:13.128Z,53.10
2019-06-10T19:37:43.923Z,53.00
2019-06-10T19:40:16.195Z,53.10
2019-06-10T19:42:46.976Z,53.10
2019-06-10T19:45:18.092Z,53.00
2019-06-10T19:47:52.292Z,53.30
2019-06-10T19:50:23.349Z,53.50
2019-06-10T19:52:56.750Z,53.70
2019-06-10T19:55:29.367Z,53.60
2019-06-10T19:58:03.773Z,54.00
2019-06-10T20:00:35.930Z,53.90
2019-06-10T20:03:08.578Z,53.90
2019-06-10T20:05:40.058Z,54.50
2019-06-10T20:08:12.117Z,55.40
2019-06-10T20:10:44.481Z,55.60
2019-06-10T20:13:15.203Z,56.00
2019-06-10T20:15:47.978Z,56.00
2019-06-10T20:18:18.765Z,56.20
2019-06-10T20:20:49.329Z,56.20
2019-06-10T20:23:19.898Z,56.30
2019-06-10T20:25:52.700Z,56.30
2019-06-10T20:28:22.992Z,56.40
2019-06-10T20:31:12.728Z,56.40
2019-06-10T20:33:48.896Z,56.40
2019-06-10T20:36:23.296Z,56.50
2019-06-10T20:38:53.518Z,56.50
2019-06-10T20:41:24.571Z,56.50
2019-06-10T20:43:55.540Z,56.30
2019-06-10T20:46:26.503Z,56.70
2019-06-10T20:49:00.177Z,56.70
2019-06-10T20:51:46.191Z,56.80
2019-06-10T20:54:05.677Z,56.70
2019-06-10T20:56:38.594Z,56.70
2019-06-10T20:59:13.002Z,57.00
2019-06-10T21:01:44.412Z,57.30
2019-06-10T21:04:15.241Z,57.70
2019-06-10T21:06:47.661Z,58.60
2019-06-10T21:09:19.169Z,57.90
2019-06-10T21:11:51.036Z,58.20
2019-06-10T21:14:22.903Z,58.30
2019-06-10T21:16:53.817Z,58.40
2019-06-10T21:19:25.970Z,58.40
2019-06-10T21:21:56.793Z,58.20
2019-06-10T21:24:28.095Z,58.50
2019-06-10T21:26:59.219Z,58.90
2019-06-10T21:29:32.166Z,58.70
2019-06-10T21:32:03.675Z,58.50
2019-06-10T21:34:38.021Z,58.30
2019-06-10T21:37:08.722Z,58.30
2019-06-10T21:39:44.200Z,58.60
2019-06-10T21:42:13.091Z,58.80
2019-06-10T21:44:43.881Z,58.50
2019-06-10T21:47:14.614Z,58.90
2019-06-10T21:49:46.984Z,59.10
2019-06-10T21:52:17.619Z,59.20
2019-06-10T21:54:48.610Z,59.20
2019-06-10T21:57:19.396Z,59.10
2019-06-10T21:59:51.514Z,59.10
2019-06-10T22:02:23.101Z,58.80
2019-06-10T22:04:56.111Z,58.90
2019-06-10T22:07:26.768Z,59.00
2019-06-10T22:09:57.371Z,59.50
2019-06-10T22:12:27.942Z,59.50
2019-06-10T22:14:59.804Z,59.00
2019-06-10T22:17:30.513Z,59.10
2019-06-10T22:20:01.420Z,58.80
2019-06-10T22:22:32.347Z,58.70
2019-06-10T22:25:07.109Z,58.50
2019-06-10T22:27:37.867Z,58.20
2019-06-10T22:30:11.550Z,58.00
2019-06-10T22:32:42.953Z,57.70
2019-06-10T22:35:13.614Z,57.70
2019-06-10T22:37:45.600Z,57.60
2019-06-10T22:40:16.788Z,57.40
2019-06-10T22:42:47.521Z,57.00
2019-06-10T22:45:18.169Z,56.80
2019-06-10T22:47:49.719Z,56.40
2019-06-10T22:50:22.958Z,56.30
2019-06-10T22:52:55.593Z,56.10
2019-06-10T22:55:26.445Z,55.80
2019-06-10T22:57:59.745Z,56.00
2019-06-10T23:00:29.272Z,55.90
2019-06-10T23:03:02.548Z,55.80
2019-06-10T23:05:33.262Z,55.70
2019-06-10T23:08:04.117Z,55.80
2019-06-10T23:10:35.485Z,55.90
2019-06-10T23:13:07.782Z,55.70
2019-06-10T23:15:38.593Z,55.70
2019-06-10T23:18:12.477Z,55.60
2019-06-10T23:20:42.712Z,55.10
2019-06-10T23:23:13.979Z,55.70
2019-06-10T23:25:44.898Z,55.10
2019-06-10T23:28:15.990Z,55.00
2019-06-10T23:30:47.255Z,55.20
2019-06-10T23:33:17.873Z,55.10
2019-06-10T23:35:48.459Z,55.30
2019-06-10T23:38:19.152Z,55.30
2019-06-10T23:40:50.666Z,55.50
2019-06-10T23:43:22.555Z,55.80
2019-06-10T23:45:53.362Z,56.20
2019-06-10T23:48:23.987Z,56.50
2019-06-10T23:50:56.084Z,56.40
2019-06-10T23:53:27.136Z,56.60
2019-06-10T23:55:58.035Z,56.50
2019-06-10T23:58:32.863Z,56.40
